createdAt,value
2024-04-30T00:01:58.021Z,2.10
2024-04-30T00:07:02.208Z,1.50
2024-04-30T00:12:06.696Z,1.40
2024-04-30T00:17:13.576Z,1.87
2024-04-30T00:22:18.014Z,1.87
2024-04-30T00:27:22.352Z,1.93
2024-04-30T00:32:29.430Z,1.53
2024-04-30T00:37:33.722Z,1.40
2024-04-30T00:42:38.400Z,1.37
2024-04-30T00:47:45.806Z,1.90
2024-04-30T00:52:50.334Z,1.37
2024-04-30T00:57:54.900Z,1.20
2024-04-30T01:03:02.034Z,1.63
2024-04-30T01:08:06.365Z,1.73
2024-04-30T01:13:11.450Z,1.40
2024-04-30T01:18:19.107Z,1.07
2024-04-30T01:23:25.646Z,0.93
2024-04-30T01:28:29.916Z,0.60
2024-04-30T01:33:34.242Z,1.03
2024-04-30T01:38:41.375Z,1.20
2024-04-30T01:43:45.164Z,0.93
2024-04-30T01:48:49.152Z,1.07
2024-04-30T01:53:56.039Z,1.07
2024-04-30T01:58:59.778Z,0.80
2024-04-30T02:04:03.979Z,0.97
2024-04-30T02:09:10.891Z,0.93
2024-04-30T02:14:15.577Z,1.07
2024-04-30T02:19:19.446Z,1.43
2024-04-30T02:24:26.425Z,0.90
2024-04-30T02:29:30.393Z,1.20
2024-04-30T02:34:34.399Z,1.10
2024-04-30T02:39:41.448Z,1.70
2024-04-30T02:44:45.942Z,1.10
2024-04-30T02:49:49.868Z,0.97
2024-04-30T02:54:56.678Z,1.27
2024-04-30T03:00:00.843Z,1.40
2024-04-30T03:05:04.765Z,0.90
2024-04-30T03:10:12.024Z,1.17
2024-04-30T03:15:17.869Z,1.00
2024-04-30T03:20:22.244Z,1.07
2024-04-30T03:25:29.129Z,1.00
2024-04-30T03:30:33.604Z,1.10
2024-04-30T03:35:37.856Z,0.93
2024-04-30T03:40:45.008Z,1.10
2024-04-30T03:45:49.200Z,1.23
2024-04-30T03:50:55.361Z,1.83
2024-04-30T03:56:02.611Z,1.40
2024-04-30T04:01:06.926Z,1.40
2024-04-30T04:06:12.632Z,1.03
2024-04-30T04:11:34.162Z,1.37
2024-04-30T04:16:38.147Z,1.20
2024-04-30T04:21:42.677Z,1.50
2024-04-30T04:26:49.748Z,2.10
2024-04-30T04:31:53.753Z,2.37
2024-04-30T04:36:58.346Z,1.30
2024-04-30T04:42:06.066Z,1.20
2024-04-30T04:47:10.352Z,1.80
2024-04-30T04:52:15.334Z,2.03
2024-04-30T04:57:21.800Z,1.90
2024-04-30T05:02:26.112Z,2.43
2024-04-30T05:07:30.293Z,1.57
2024-04-30T05:12:39.285Z,1.87
2024-04-30T05:17:45.889Z,1.70
2024-04-30T05:22:51.214Z,1.33
2024-04-30T05:27:59.373Z,1.70
2024-04-30T05:33:03.646Z,1.47
2024-04-30T05:38:07.770Z,1.10
2024-04-30T05:43:17.338Z,1.43
2024-04-30T05:48:21.343Z,1.80
2024-04-30T05:53:25.517Z,1.97
2024-04-30T05:58:32.730Z,2.27
2024-04-30T06:03:36.908Z,1.87
2024-04-30T06:08:41.838Z,1.87
2024-04-30T06:13:48.643Z,1.80
2024-04-30T06:18:52.503Z,2.27
2024-04-30T06:23:56.445Z,1.93
2024-04-30T06:29:03.234Z,1.87
2024-04-30T06:34:07.643Z,2.40
2024-04-30T06:39:11.651Z,2.70
2024-04-30T06:44:18.502Z,2.70
2024-04-30T06:49:25.013Z,2.10
2024-04-30T06:54:30.832Z,1.88
2024-04-30T06:59:37.616Z,1.95
2024-04-30T07:04:41.901Z,7.38
2024-04-30T07:09:45.778Z,5.65
2024-04-30T07:14:52.297Z,11.70
2024-04-30T07:19:56.146Z,1.65
2024-04-30T07:25:00.256Z,0.90
2024-04-30T07:30:07.785Z,1.50
2024-04-30T07:35:11.893Z,1.27
2024-04-30T07:40:16.614Z,1.42
2024-04-30T07:45:23.017Z,0.73
2024-04-30T07:50:27.194Z,0.75
2024-04-30T07:55:31.404Z,1.38
2024-04-30T08:00:38.338Z,1.00
2024-04-30T08:05:43.566Z,1.20
2024-04-30T08:10:48.183Z,1.20
2024-04-30T08:15:55.050Z,1.08
2024-04-30T08:20:58.782Z,1.08
2024-04-30T08:26:02.997Z,0.90
2024-04-30T08:31:09.807Z,0.68
2024-04-30T08:36:13.848Z,0.60
2024-04-30T08:41:17.982Z,1.40
2024-04-30T08:46:24.728Z,0.80
2024-04-30T08:51:30.060Z,0.77
2024-04-30T08:56:36.990Z,1.05
2024-04-30T09:01:47.399Z,0.90
2024-04-30T09:06:52.267Z,1.02
2024-04-30T09:11:56.570Z,1.00
2024-04-30T09:17:03.910Z,0.63
2024-04-30T09:22:10.063Z,1.00
2024-04-30T09:27:14.009Z,0.68
2024-04-30T09:32:25.957Z,0.52
2024-04-30T09:37:35.422Z,0.98
2024-04-30T09:42:41.933Z,0.77
2024-04-30T09:47:50.494Z,0.80
2024-04-30T09:52:54.853Z,0.95
2024-04-30T09:58:01.662Z,1.10
2024-04-30T10:03:11.623Z,0.98
2024-04-30T10:08:17.334Z,0.90
2024-04-30T10:13:25.620Z,1.00
2024-04-30T10:18:35.644Z,1.13
2024-04-30T10:23:42.718Z,1.80
2024-04-30T10:28:47.389Z,1.25
2024-04-30T10:34:00.952Z,1.10
2024-04-30T10:39:05.226Z,1.25
2024-04-30T10:44:11.511Z,1.30
2024-04-30T10:49:22.985Z,1.52
2024-04-30T10:54:29.689Z,1.65
2024-04-30T10:59:34.904Z,1.35
2024-04-30T11:04:42.121Z,1.70
2024-04-30T11:09:47.433Z,2.00
2024-04-30T11:14:53.113Z,1.75
2024-04-30T11:20:02.203Z,1.95
2024-04-30T11:25:06.488Z,2.40
2024-04-30T11:30:11.818Z,1.95
2024-04-30T11:35:18.933Z,1.98
2024-04-30T11:40:22.995Z,2.10
2024-04-30T11:45:35.320Z,1.85
2024-04-30T11:50:43.198Z,2.10
2024-04-30T11:55:47.692Z,1.92
2024-04-30T12:00:52.095Z,1.80
2024-04-30T12:06:07.047Z,2.13
2024-04-30T12:11:13.472Z,2.22
2024-04-30T12:16:20.755Z,2.42
2024-04-30T12:21:27.451Z,2.33
2024-04-30T12:26:35.150Z,2.55
2024-04-30T12:31:43.629Z,1.90
2024-04-30T12:36:50.675Z,2.10
2024-04-30T12:41:54.643Z,3.28
2024-04-30T12:46:58.979Z,2.28
2024-04-30T12:52:09.482Z,2.38
2024-04-30T12:57:13.574Z,1.77
2024-04-30T13:02:17.485Z,2.58
2024-04-30T13:07:24.228Z,2.20
2024-04-30T13:12:28.954Z,2.85
2024-04-30T13:17:33.589Z,2.47
2024-04-30T13:22:42.072Z,2.55
2024-04-30T13:27:46.710Z,4.45
2024-04-30T13:32:50.760Z,4.25
2024-04-30T13:37:57.548Z,3.40
2024-04-30T13:43:01.631Z,3.72
2024-04-30T13:48:05.438Z,3.20
2024-04-30T13:53:12.315Z,4.07
2024-04-30T13:58:16.312Z,3.35
2024-04-30T14:03:20.730Z,4.78
2024-04-30T14:08:29.111Z,3.78
2024-04-30T14:13:33.049Z,3.10
2024-04-30T14:18:38.249Z,2.72
2024-04-30T14:23:44.993Z,3.90
2024-04-30T14:28:49.024Z,3.53
2024-04-30T14:33:53.401Z,6.10
2024-04-30T14:39:00.393Z,5.10
2024-04-30T14:44:05.016Z,6.47
2024-04-30T14:49:09.882Z,4.60
2024-04-30T14:54:16.952Z,8.13
2024-04-30T14:59:23.246Z,9.70
2024-04-30T15:04:27.510Z,5.70
2024-04-30T15:09:35.666Z,5.97
2024-04-30T15:14:40.276Z,3.50
2024-04-30T15:19:44.584Z,3.35
2024-04-30T15:24:51.428Z,10.18
2024-04-30T15:29:56.721Z,8.32
2024-04-30T15:35:02.278Z,4.78
2024-04-30T15:40:10.416Z,6.03
2024-04-30T15:45:14.902Z,18.50
2024-04-30T15:50:19.935Z,25.90
2024-04-30T15:55:26.802Z,13.13
2024-04-30T16:00:31.328Z,9.60
2024-04-30T16:05:35.128Z,5.22
2024-04-30T16:10:41.985Z,4.45
2024-04-30T16:15:46.850Z,4.43
2024-04-30T16:20:52.532Z,2.58
2024-04-30T16:25:59.472Z,3.25
2024-04-30T16:31:07.361Z,3.15
2024-04-30T16:36:13.593Z,3.55
2024-04-30T16:41:21.720Z,2.17
2024-04-30T16:46:25.477Z,2.42
2024-04-30T16:51:30.067Z,3.17
2024-04-30T16:56:41.878Z,2.88
2024-04-30T17:01:50.784Z,2.50
2024-04-30T17:06:56.106Z,2.60
2024-04-30T17:12:03.098Z,3.88
2024-04-30T17:17:07.661Z,3.35
2024-04-30T17:22:11.781Z,2.90
2024-04-30T17:27:18.507Z,3.38
2024-04-30T17:32:23.443Z,3.35
2024-04-30T17:37:27.832Z,3.75
2024-04-30T17:42:34.744Z,3.88
2024-04-30T17:47:40.147Z,4.10
2024-04-30T17:52:44.419Z,3.63
2024-04-30T17:57:51.144Z,2.70
2024-04-30T18:02:55.265Z,3.72
2024-04-30T18:07:59.038Z,2.95
2024-04-30T18:13:05.672Z,2.92
2024-04-30T18:18:09.954Z,3.30
2024-04-30T18:23:13.788Z,3.13
2024-04-30T18:28:23.607Z,2.47
2024-04-30T18:33:27.889Z,4.45
2024-04-30T18:38:32.212Z,3.45
2024-04-30T18:43:38.530Z,3.93
2024-04-30T18:48:45.265Z,3.60
2024-04-30T18:53:49.433Z,2.90
2024-04-30T18:58:57.061Z,3.90
2024-04-30T19:04:01.537Z,3.10
2024-04-30T19:09:08.986Z,4.60
2024-04-30T19:14:23.360Z,5.37
2024-04-30T19:19:32.579Z,6.53
2024-04-30T19:24:45.212Z,4.70
2024-04-30T19:29:52.783Z,3.73
2024-04-30T19:34:59.362Z,3.33
2024-04-30T19:40:07.116Z,3.90
2024-04-30T19:45:16.997Z,2.80
2024-04-30T19:50:32.311Z,3.33
2024-04-30T19:56:03.615Z,3.33
2024-04-30T20:01:13.228Z,3.97
2024-04-30T20:06:21.316Z,4.37
2024-04-30T20:11:31.486Z,4.53
2024-04-30T20:16:43.765Z,4.47
2024-04-30T20:21:50.702Z,5.10
2024-04-30T20:26:56.327Z,5.27
2024-04-30T20:32:05.329Z,6.37
2024-04-30T20:37:09.440Z,7.20
2024-04-30T20:42:24.822Z,6.23
2024-04-30T20:47:32.422Z,5.17
2024-04-30T20:52:42.772Z,4.07
2024-04-30T20:57:48.280Z,6.60
2024-04-30T21:02:55.124Z,10.30
2024-04-30T21:08:04.414Z,18.73
2024-04-30T21:13:15.070Z,13.83
2024-04-30T21:18:22.001Z,11.93
2024-04-30T21:23:25.833Z,8.30
2024-04-30T21:28:31.683Z,5.97
2024-04-30T21:33:38.719Z,5.50
2024-04-30T21:38:43.421Z,5.40
2024-04-30T21:43:47.403Z,6.80
2024-04-30T21:48:54.585Z,8.83
2024-04-30T21:53:58.770Z,5.80
2024-04-30T21:59:04.361Z,4.70
2024-04-30T22:04:12.392Z,7.50
2024-04-30T22:09:17.396Z,6.70
2024-04-30T22:14:22.399Z,5.17
2024-04-30T22:19:29.768Z,6.27
2024-04-30T22:24:34.569Z,4.53
2024-04-30T22:29:39.548Z,35.37
2024-04-30T22:34:47.496Z,9.17
2024-04-30T22:39:53.355Z,6.87
2024-04-30T22:44:59.171Z,5.97
2024-04-30T22:50:09.596Z,4.97
2024-04-30T22:55:13.309Z,7.23
2024-04-30T23:00:18.946Z,6.40
2024-04-30T23:05:25.901Z,4.37
2024-04-30T23:10:29.916Z,4.00
2024-04-30T23:15:34.855Z,3.83
2024-04-30T23:20:42.162Z,4.00
2024-04-30T23:25:47.016Z,4.33
2024-04-30T23:30:51.327Z,3.47
2024-04-30T23:35:58.618Z,3.37
2024-04-30T23:41:03.251Z,3.17
2024-04-30T23:46:08.430Z,3.47
2024-04-30T23:51:17.518Z,3.00
2024-04-30T23:56:22.713Z,3.40
